Time;durP1;ratioP1;P1;durP2;ratioP2;P2;SDS_P1;SDS_P2;PMS_P1;PMS_P2;Temp;Humidity;BMP_temperature;BMP_pressure;BME280_temperature;BME280_humidity;BME280_pressure;Samples;Min_cycle;Max_cycle;Signal;HPM_P1;HPM_P2
2020/12/28 00:01:11;;;;;;;49.78;27.95;;;5.30;99.90;;;;;;5065469;28;20199;-76
2020/12/28 00:03:40;;;;;;;51.53;28.30;;;5.30;99.90;;;;;;5069138;27;20229;-76
2020/12/28 00:06:07;;;;;;;53.30;28.55;;;5.30;99.90;;;;;;5070270;28;20199;-76
2020/12/28 00:08:34;;;;;;;48.97;28.15;;;5.20;99.90;;;;;;5072430;28;20290;-76
2020/12/28 00:11:00;;;;;;;50.30;27.73;;;5.20;99.90;;;;;;5082009;28;20194;-76
2020/12/28 00:13:26;;;;;;;47.28;28.30;;;5.20;99.90;;;;;;5073446;28;20207;-76
2020/12/28 00:15:53;;;;;;;49.38;28.08;;;5.20;99.90;;;;;;5082240;28;20214;-76
2020/12/28 00:18:19;;;;;;;51.97;28.30;;;5.10;99.90;;;;;;5070401;28;20565;-76
2020/12/28 00:20:45;;;;;;;47.88;27.58;;;5.10;99.90;;;;;;5087390;28;20205;-76
2020/12/28 00:23:12;;;;;;;50.47;28.77;;;5.10;99.90;;;;;;5069332;28;20237;-76
2020/12/28 00:25:39;;;;;;;47.97;27.58;;;5.10;99.90;;;;;;5074914;28;20198;-76
2020/12/28 00:28:05;;;;;;;51.72;28.90;;;5.10;99.90;;;;;;5069538;28;20195;-77
2020/12/28 00:30:31;;;;;;;51.67;29.83;;;5.00;99.90;;;;;;5084149;28;20729;-75
2020/12/28 00:32:58;;;;;;;57.78;31.52;;;5.10;99.90;;;;;;5069287;28;20195;-76
2020/12/28 00:35:24;;;;;;;52.13;31.23;;;5.00;99.90;;;;;;5067551;28;20230;-76
2020/12/28 00:37:50;;;;;;;56.90;31.55;;;5.00;99.90;;;;;;5067591;28;20211;-76
2020/12/28 00:40:18;;;;;;;52.53;30.67;;;5.00;99.90;;;;;;5088426;28;20614;-76
2020/12/28 00:42:44;;;;;;;62.35;31.40;;;5.00;99.90;;;;;;5078024;28;20222;-75
2020/12/28 00:45:10;;;;;;;55.45;32.90;;;5.00;99.90;;;;;;5067779;27;20572;-76
2020/12/28 00:47:37;;;;;;;71.55;36.40;;;5.00;99.90;;;;;;5070901;27;20251;-75
2020/12/28 00:50:04;;;;;;;76.97;35.63;;;5.00;99.90;;;;;;5068366;28;20238;-76
2020/12/28 00:52:31;;;;;;;76.60;36.58;;;5.00;99.90;;;;;;5068584;28;20195;-76
2020/12/28 00:54:57;;;;;;;87.65;38.63;;;5.00;99.90;;;;;;5067763;28;20208;-76
2020/12/28 00:57:24;;;;;;;91.28;40.13;;;5.00;99.90;;;;;;5070465;28;20241;-76
2020/12/28 00:59:51;;;;;;;96.30;40.45;;;5.00;99.90;;;;;;5070596;28;20230;-76
2020/12/28 01:02:25;;;;;;;104.15;40.83;;;5.10;99.90;;;;;;5067149;28;20685;-76
2020/12/28 01:05:01;;;;;;;174.43;40.90;;;5.00;99.90;;;;;;5066297;28;20251;-76
2020/12/28 01:07:34;;;;;;;279.17;41.03;;;5.00;99.90;;;;;;5076499;28;20190;-76
2020/12/28 01:10:13;;;;;;;138.18;40.05;;;5.00;99.90;;;;;;5065829;28;20194;-76
2020/12/28 01:12:40;;;;;;;164.65;40.88;;;5.00;99.90;;;;;;5067678;28;20301;-75
2020/12/28 01:15:11;;;;;;;150.30;41.33;;;5.00;99.90;;;;;;5067343;28;20658;-76
2020/12/28 01:17:44;;;;;;;127.43;42.10;;;5.00;99.90;;;;;;5068342;28;20206;-78
2020/12/28 01:20:18;;;;;;;106.90;41.17;;;5.10;99.90;;;;;;5069650;28;20198;-77
2020/12/28 01:22:48;;;;;;;97.07;41.90;;;5.10;99.90;;;;;;5067188;28;20199;-78
2020/12/28 01:25:14;;;;;;;98.88;41.45;;;5.10;99.90;;;;;;5067059;28;20331;-78
2020/12/28 01:27:53;;;;;;;93.53;41.67;;;5.20;99.90;;;;;;5066074;28;20209;-78
2020/12/28 01:30:19;;;;;;;96.10;43.28;;;5.20;99.90;;;;;;5082362;27;20205;-77
2020/12/28 01:32:45;;;;;;;89.82;41.38;;;5.30;99.90;;;;;;5087417;28;20262;-78
2020/12/28 01:35:41;;;;;;;90.63;40.90;;;5.30;99.90;;;;;;5072547;28;20232;-77
2020/12/28 01:38:08;;;;;;;88.22;39.30;;;5.30;99.90;;;;;;5069536;28;20206;-77
2020/12/28 01:40:35;;;;;;;94.03;39.70;;;5.30;99.90;;;;;;5082329;28;20560;-77
2020/12/28 01:43:20;;;;;;;81.63;38.95;;;5.30;99.90;;;;;;5071905;27;20238;-77
2020/12/28 01:45:46;;;;;;;77.28;37.35;;;5.30;99.90;;;;;;5074505;28;20194;-77
2020/12/28 01:48:17;;;;;;;73.45;38.60;;;5.30;99.90;;;;;;5066559;28;20197;-77
2020/12/28 01:50:44;;;;;;;68.22;35.75;;;5.30;99.90;;;;;;5066222;28;20294;-77
2020/12/28 01:53:11;;;;;;;70.57;35.97;;;5.20;99.90;;;;;;5069490;28;20207;-77
2020/12/28 01:55:42;;;;;;;72.72;35.92;;;5.20;99.90;;;;;;5066560;28;20779;-77
2020/12/28 01:58:09;;;;;;;69.55;35.22;;;5.20;99.90;;;;;;5065387;28;20198;-77
2020/12/28 02:00:37;;;;;;;67.90;35.10;;;5.20;99.90;;;;;;5067933;28;20251;-77
2020/12/28 02:03:08;;;;;;;72.93;35.55;;;5.10;99.90;;;;;;5067637;28;20207;-77
2020/12/28 02:05:44;;;;;;;67.82;36.20;;;5.10;99.90;;;;;;5067721;28;20198;-76
2020/12/28 02:08:11;;;;;;;74.93;35.97;;;5.10;99.90;;;;;;5070119;28;20697;-75
2020/12/28 02:10:37;;;;;;;69.03;35.50;;;5.10;99.90;;;;;;5085704;28;20210;-77
2020/12/28 02:13:04;;;;;;;76.75;36.00;;;5.10;99.90;;;;;;5070354;28;20226;-77
2020/12/28 02:15:39;;;;;;;68.63;35.33;;;5.00;99.90;;;;;;5070713;28;20214;-77
2020/12/28 02:18:28;;;;;;;64.45;35.40;;;5.00;99.90;;;;;;5075299;27;20333;-76
2020/12/28 02:21:06;;;;;;;62.90;32.60;;;5.00;99.90;;;;;;5073024;28;20555;-77
2020/12/28 02:23:34;;;;;;;61.85;33.95;;;4.90;99.90;;;;;;5070749;28;20237;-77
2020/12/28 02:26:01;;;;;;;63.22;33.17;;;4.90;99.90;;;;;;5073865;28;20206;-77
2020/12/28 02:28:28;;;;;;;57.17;31.58;;;4.80;99.90;;;;;;5070101;28;20639;-77
2020/12/28 02:30:55;;;;;;;57.20;32.15;;;4.80;99.90;;;;;;5071831;28;20222;-77
2020/12/28 02:33:42;;;;;;;63.33;32.60;;;4.80;99.90;;;;;;5083383;28;20235;-76
2020/12/28 02:36:19;;;;;;;59.90;31.17;;;4.80;99.90;;;;;;5069296;27;20202;-76
2020/12/28 02:38:46;;;;;;;62.10;31.92;;;4.70;99.90;;;;;;5068101;28;20781;-76
2020/12/28 02:41:13;;;;;;;58.58;32.42;;;4.80;99.90;;;;;;5088142;28;20201;-76
2020/12/28 02:43:58;;;;;;;56.08;31.80;;;4.70;99.90;;;;;;5081989;28;20241;-76
2020/12/28 02:46:43;;;;;;;55.30;31.73;;;4.70;99.90;;;;;;5088428;28;20209;-76
2020/12/28 02:49:27;;;;;;;62.70;33.47;;;4.70;99.90;;;;;;5081599;28;20212;-76
2020/12/28 02:52:12;;;;;;;59.60;32.70;;;4.60;99.90;;;;;;5072548;28;20290;-76
2020/12/28 02:54:57;;;;;;;63.03;34.05;;;4.60;99.90;;;;;;5073447;28;20202;-76
2020/12/28 02:57:42;;;;;;;59.28;33.50;;;4.60;99.90;;;;;;5068599;28;20217;-75
2020/12/28 03:00:27;;;;;;;62.45;33.85;;;4.60;99.90;;;;;;5068528;28;20270;-75
2020/12/28 03:03:12;;;;;;;58.50;33.85;;;4.50;99.90;;;;;;5077768;28;20697;-75
2020/12/28 03:06:04;;;;;;;62.92;33.90;;;4.50;99.90;;;;;;5060585;28;20249;-75
2020/12/28 03:08:49;;;;;;;67.28;34.03;;;4.40;99.90;;;;;;5075543;28;20210;-76
2020/12/28 03:11:37;;;;;;;63.45;32.30;;;4.40;99.90;;;;;;5088383;28;20753;-75
2020/12/28 03:14:22;;;;;;;62.15;34.03;;;4.40;99.90;;;;;;5070184;28;20248;-75
2020/12/28 03:17:06;;;;;;;68.50;34.88;;;4.40;99.90;;;;;;5087305;28;20213;-75
2020/12/28 03:19:51;;;;;;;66.18;35.22;;;4.40;99.90;;;;;;5069690;28;20198;-75
2020/12/28 03:22:36;;;;;;;72.70;37.13;;;4.30;99.90;;;;;;5073007;28;20290;-75
2020/12/28 03:25:21;;;;;;;75.95;37.08;;;4.30;99.90;;;;;;5068072;28;20218;-75
2020/12/28 03:28:06;;;;;;;80.00;37.67;;;4.30;99.90;;;;;;5086155;28;20230;-75
2020/12/28 03:30:51;;;;;;;83.20;39.53;;;4.30;99.90;;;;;;5078961;28;20259;-75
2020/12/28 03:33:36;;;;;;;81.47;38.90;;;4.30;99.90;;;;;;5082638;28;20217;-75
2020/12/28 03:36:21;;;;;;;89.28;40.58;;;4.30;99.90;;;;;;5087792;28;20209;-75
2020/12/28 03:39:05;;;;;;;87.78;40.58;;;4.40;99.90;;;;;;5074805;28;20692;-75
2020/12/28 03:41:50;;;;;;;101.22;42.00;;;4.40;99.90;;;;;;5087279;28;20575;-76
2020/12/28 03:44:36;;;;;;;102.18;39.78;;;4.40;99.90;;;;;;5073142;28;20241;-76
2020/12/28 03:47:31;;;;;;;91.47;37.53;;;4.40;99.90;;;;;;5014829;28;20695;-75
2020/12/28 03:50:33;;;;;;;102.32;41.05;;;4.40;99.90;;;;;;5044514;28;20205;-75
2020/12/28 03:53:18;;;;;;;95.03;40.38;;;4.40;99.90;;;;;;5066594;28;20240;-76
2020/12/28 03:56:03;;;;;;;92.30;39.45;;;4.40;99.90;;;;;;5077565;28;20267;-76
2020/12/28 03:58:48;;;;;;;99.55;39.92;;;4.40;99.90;;;;;;5078227;28;20724;-75
2020/12/28 04:01:44;;;;;;;104.82;40.47;;;4.40;99.90;;;;;;5032599;28;20586;-76
2020/12/28 04:04:29;;;;;;;103.75;41.13;;;4.40;99.90;;;;;;5084217;28;20252;-75
2020/12/28 04:07:14;;;;;;;162.05;40.60;;;4.40;99.90;;;;;;5081656;28;20213;-75
2020/12/28 04:10:01;;;;;;;262.55;39.53;;;4.40;99.90;;;;;;5069747;28;20339;-75
2020/12/28 04:12:41;;;;;;;250.00;40.58;;;4.40;99.90;;;;;;5065710;28;20206;-76
2020/12/28 04:15:08;;;;;;;254.32;38.85;;;4.40;99.90;;;;;;5072025;28;20668;-76
2020/12/28 04:17:35;;;;;;;194.70;40.08;;;4.40;99.90;;;;;;5069058;28;20230;-75
2020/12/28 04:20:01;;;;;;;210.52;39.03;;;4.40;99.90;;;;;;5071704;28;20190;-75
2020/12/28 04:22:28;;;;;;;162.98;38.08;;;4.40;99.90;;;;;;5087324;28;20194;-75
2020/12/28 04:24:54;;;;;;;127.55;37.65;;;4.30;99.90;;;;;;5072995;28;20230;-76
2020/12/28 04:27:20;;;;;;;142.05;37.67;;;4.30;99.90;;;;;;5065883;28;20206;-75
2020/12/28 04:29:48;;;;;;;133.98;36.60;;;4.40;99.90;;;;;;5067225;28;20203;-76
2020/12/28 04:32:15;;;;;;;127.22;37.17;;;4.40;99.90;;;;;;5067429;27;20198;-76
2020/12/28 04:34:44;;;;;;;107.18;37.33;;;4.40;99.90;;;;;;5067938;27;20280;-76
2020/12/28 04:37:10;;;;;;;101.18;36.95;;;4.40;99.90;;;;;;5072030;28;20319;-76
2020/12/28 04:39:37;;;;;;;106.00;37.47;;;4.40;99.90;;;;;;5066411;28;20211;-77
2020/12/28 04:42:03;;;;;;;112.60;37.88;;;4.40;99.90;;;;;;5067320;28;20195;-77
2020/12/28 04:44:30;;;;;;;103.53;38.67;;;4.40;99.90;;;;;;5076674;28;21627;-76
2020/12/28 04:46:57;;;;;;;105.72;39.15;;;4.40;99.90;;;;;;5067701;28;20194;-77
2020/12/28 04:49:24;;;;;;;118.78;37.88;;;4.40;99.90;;;;;;5066301;28;20206;-76
2020/12/28 04:51:54;;;;;;;101.55;36.92;;;4.40;99.90;;;;;;5066362;27;20206;-76
2020/12/28 04:54:21;;;;;;;98.20;37.35;;;4.40;99.90;;;;;;5067844;27;20646;-77
2020/12/28 04:56:47;;;;;;;103.07;36.92;;;4.30;99.90;;;;;;5071414;28;20203;-76
2020/12/28 04:59:14;;;;;;;97.93;37.45;;;4.30;99.90;;;;;;5065559;28;20210;-76
2020/12/28 05:01:51;;;;;;;107.50;37.17;;;4.30;99.90;;;;;;5066602;27;20206;-76
2020/12/28 05:04:22;;;;;;;97.65;36.90;;;4.40;99.90;;;;;;5065988;28;20213;-76
2020/12/28 05:07:00;;;;;;;105.25;36.60;;;4.40;99.90;;;;;;5066392;28;20247;-77
2020/12/28 05:09:26;;;;;;;106.80;38.50;;;4.40;99.90;;;;;;5081647;28;20209;-76
2020/12/28 05:11:54;;;;;;;104.50;36.85;;;4.40;99.90;;;;;;5068640;28;20206;-77
2020/12/28 05:14:20;;;;;;;119.20;37.90;;;4.40;99.90;;;;;;5084377;28;20201;-76
2020/12/28 05:16:47;;;;;;;107.90;37.47;;;4.40;99.90;;;;;;5068429;28;20206;-76
2020/12/28 05:19:13;;;;;;;116.13;37.95;;;4.40;99.90;;;;;;5068250;28;20700;-78
2020/12/28 05:21:42;;;;;;;108.07;37.67;;;4.40;99.90;;;;;;5067480;28;20210;-76
2020/12/28 05:24:13;;;;;;;117.03;38.25;;;4.40;99.90;;;;;;5074473;28;20211;-74
2020/12/28 05:26:42;;;;;;;103.90;37.05;;;4.40;99.90;;;;;;5078653;28;20197;-76
2020/12/28 05:29:12;;;;;;;103.80;37.20;;;4.40;99.90;;;;;;5075870;28;20294;-77
2020/12/28 05:31:39;;;;;;;106.95;37.85;;;4.50;99.90;;;;;;5064825;28;20243;-77
2020/12/28 05:34:11;;;;;;;107.35;39.08;;;4.50;99.90;;;;;;5073210;28;20195;-77
2020/12/28 05:36:38;;;;;;;95.78;37.15;;;4.50;99.90;;;;;;5068448;28;20202;-75
2020/12/28 05:39:04;;;;;;;115.88;39.05;;;4.50;99.90;;;;;;5069014;27;20210;-77
2020/12/28 05:41:31;;;;;;;104.43;39.00;;;4.50;99.90;;;;;;5087797;28;20201;-74
2020/12/28 05:44:09;;;;;;;110.53;39.13;;;4.50;99.90;;;;;;5071793;28;20207;-79
2020/12/28 05:46:36;;;;;;;110.22;38.78;;;4.50;99.90;;;;;;5070223;28;20247;-78
2020/12/28 05:49:06;;;;;;;94.05;35.55;;;4.50;99.90;;;;;;5069778;28;20202;-77
2020/12/28 05:51:35;;;;;;;91.47;35.58;;;4.50;99.90;;;;;;5068202;28;20237;-78
2020/12/28 05:54:10;;;;;;;93.97;36.05;;;4.50;99.90;;;;;;5072488;28;20194;-79
2020/12/28 05:56:43;;;;;;;94.88;35.05;;;4.50;99.90;;;;;;5084687;28;20917;-79
2020/12/28 05:59:12;;;;;;;94.85;35.00;;;4.50;99.90;;;;;;5078613;28;20202;-77
2020/12/28 06:01:42;;;;;;;95.75;35.35;;;4.50;99.90;;;;;;5069838;27;20688;-77
2020/12/28 06:04:13;;;;;;;96.40;35.10;;;4.50;99.90;;;;;;5074451;28;20692;-76
2020/12/28 06:06:40;;;;;;;92.57;34.28;;;4.50;99.90;;;;;;5067879;28;20894;-76
2020/12/28 06:09:06;;;;;;;88.13;32.85;;;4.50;99.90;;;;;;5069520;28;21284;-77
2020/12/28 06:11:32;;;;;;;99.03;34.22;;;4.50;99.90;;;;;;5071202;27;20235;-76
2020/12/28 06:14:00;;;;;;;98.93;35.83;;;4.40;99.90;;;;;;5088363;28;20186;-76
2020/12/28 06:16:26;;;;;;;104.38;36.03;;;4.40;99.90;;;;;;5080316;28;20198;-77
2020/12/28 06:18:54;;;;;;;97.97;35.15;;;4.50;99.90;;;;;;5068078;28;20202;-77
2020/12/28 06:21:21;;;;;;;98.55;33.38;;;4.50;99.90;;;;;;5070442;28;20541;-76
2020/12/28 06:23:50;;;;;;;104.60;35.97;;;4.50;99.90;;;;;;5066825;28;20215;-77
2020/12/28 06:26:20;;;;;;;91.53;35.03;;;4.50;99.90;;;;;;5081482;28;20202;-77
2020/12/28 06:28:47;;;;;;;102.15;36.17;;;4.50;99.90;;;;;;5067442;28;20244;-77
2020/12/28 06:31:14;;;;;;;91.05;33.65;;;4.50;99.90;;;;;;5083139;28;20206;-78
2020/12/28 06:33:49;;;;;;;87.53;32.78;;;4.50;99.90;;;;;;5068409;28;20198;-77
2020/12/28 06:36:16;;;;;;;89.45;34.70;;;4.50;99.90;;;;;;5070090;28;20653;-76
2020/12/28 06:38:42;;;;;;;92.47;34.70;;;4.50;99.90;;;;;;5069198;28;20811;-77
2020/12/28 06:41:09;;;;;;;95.13;35.08;;;4.40;99.90;;;;;;5066339;28;20203;-79
2020/12/28 06:43:39;;;;;;;84.68;33.15;;;4.40;99.90;;;;;;5067896;27;20210;-77
2020/12/28 06:46:05;;;;;;;84.00;33.72;;;4.50;99.90;;;;;;5072131;28;20202;-77
2020/12/28 06:48:33;;;;;;;87.63;33.72;;;4.50;99.90;;;;;;5066994;28;20585;-77
2020/12/28 06:51:06;;;;;;;74.15;32.72;;;4.50;99.90;;;;;;5074742;28;20540;-77
2020/12/28 06:53:38;;;;;;;76.15;32.95;;;4.50;99.90;;;;;;5081357;27;20202;-77
2020/12/28 06:56:09;;;;;;;82.72;33.55;;;4.50;99.90;;;;;;5086986;28;20201;-77
2020/12/28 06:58:36;;;;;;;79.50;32.35;;;4.50;99.90;;;;;;5075314;28;20749;-76
2020/12/28 07:01:03;;;;;;;72.00;31.85;;;4.50;99.90;;;;;;5087318;28;20664;-76
2020/12/28 07:03:32;;;;;;;80.35;34.45;;;4.50;99.90;;;;;;5079328;28;20194;-76
2020/12/28 07:06:00;;;;;;;72.45;31.58;;;4.50;99.90;;;;;;5083271;28;20645;-76
2020/12/28 07:08:27;;;;;;;76.10;31.17;;;4.50;99.90;;;;;;5073911;28;20205;-75
2020/12/28 07:11:03;;;;;;;79.57;32.97;;;4.50;99.90;;;;;;5086601;28;20194;-75
2020/12/28 07:13:30;;;;;;;78.95;32.42;;;4.50;99.90;;;;;;5074393;28;20206;-78
2020/12/28 07:16:06;;;;;;;75.80;33.90;;;4.60;99.90;;;;;;5070612;28;20203;-80
2020/12/28 07:18:33;;;;;;;76.00;32.35;;;4.50;99.90;;;;;;5065728;28;20219;-80
2020/12/28 07:21:01;;;;;;;81.03;34.65;;;4.60;99.90;;;;;;5086967;28;20208;-77
2020/12/28 07:23:28;;;;;;;78.32;35.13;;;4.60;99.90;;;;;;5075361;28;20666;-76
2020/12/28 07:26:06;;;;;;;77.60;34.67;;;4.50;99.90;;;;;;5066680;28;20279;-77
2020/12/28 07:28:33;;;;;;;78.78;33.45;;;4.50;99.90;;;;;;5068390;28;20649;-79
2020/12/28 07:31:00;;;;;;;73.70;32.30;;;4.50;99.90;;;;;;5068127;28;20254;-76
2020/12/28 07:33:27;;;;;;;72.10;33.47;;;4.50;99.90;;;;;;5073722;28;20207;-77
2020/12/28 07:36:09;;;;;;;69.28;33.90;;;4.50;99.90;;;;;;5080627;28;20228;-76
2020/12/28 07:38:35;;;;;;;69.82;31.92;;;4.50;99.90;;;;;;5071313;28;20212;-76
2020/12/28 07:41:02;;;;;;;65.65;32.67;;;4.50;99.90;;;;;;5072762;28;20205;-76
2020/12/28 07:43:29;;;;;;;64.00;30.58;;;4.50;99.90;;;;;;5067762;28;20205;-76
2020/12/28 07:46:06;;;;;;;64.22;30.45;;;4.50;99.90;;;;;;5072821;28;20207;-76
2020/12/28 07:48:37;;;;;;;63.00;30.05;;;4.50;99.90;;;;;;5076520;27;20198;-75
2020/12/28 07:51:08;;;;;;;52.60;27.75;;;4.50;99.90;;;;;;5071143;28;20205;-76
2020/12/28 07:53:41;;;;;;;57.40;28.63;;;4.50;99.90;;;;;;5070300;27;20207;-77
2020/12/28 07:56:15;;;;;;;55.30;28.83;;;4.50;99.90;;;;;;5070161;28;20258;-78
2020/12/28 07:58:51;;;;;;;55.53;27.65;;;4.50;99.90;;;;;;5069913;28;20220;-77
2020/12/28 08:01:24;;;;;;;53.10;26.50;;;4.40;99.90;;;;;;5078570;28;20198;-77
2020/12/28 08:03:59;;;;;;;51.33;26.05;;;4.40;99.90;;;;;;5071603;28;20294;-77
2020/12/28 08:06:27;;;;;;;52.88;26.20;;;4.40;99.90;;;;;;5074399;28;20206;-78
2020/12/28 08:09:00;;;;;;;49.25;24.77;;;4.40;99.90;;;;;;5071533;28;20210;-78
2020/12/28 08:11:29;;;;;;;54.38;25.08;;;4.40;99.90;;;;;;5070158;28;20605;-77
2020/12/28 08:13:56;;;;;;;51.05;25.38;;;4.40;99.90;;;;;;5072559;28;20600;-77
2020/12/28 08:16:22;;;;;;;49.00;22.95;;;4.40;99.90;;;;;;5066419;28;20676;-77
2020/12/28 08:18:50;;;;;;;46.75;23.55;;;4.40;99.90;;;;;;5078896;28;20621;-76
2020/12/28 08:21:17;;;;;;;51.03;23.17;;;4.40;99.90;;;;;;5072581;28;20224;-76
2020/12/28 08:23:51;;;;;;;49.78;22.77;;;4.40;99.90;;;;;;5069247;28;20202;-77
2020/12/28 08:26:19;;;;;;;50.97;23.08;;;4.40;99.90;;;;;;5076388;28;20517;-78
2020/12/28 08:28:50;;;;;;;48.50;22.23;;;4.30;99.90;;;;;;5081338;27;20247;-77
2020/12/28 08:31:17;;;;;;;46.33;22.40;;;4.30;99.90;;;;;;5078106;28;20195;-77
2020/12/28 08:33:43;;;;;;;45.80;21.02;;;4.30;99.90;;;;;;5068773;28;20199;-76
2020/12/28 08:36:23;;;;;;;54.08;22.83;;;4.30;99.90;;;;;;5067880;28;20279;-77
2020/12/28 08:38:50;;;;;;;44.55;21.77;;;4.30;99.90;;;;;;5074685;27;20210;-77
2020/12/28 08:41:21;;;;;;;49.08;22.17;;;4.40;99.90;;;;;;5085941;28;20221;-77
2020/12/28 08:43:48;;;;;;;43.85;21.15;;;4.40;99.90;;;;;;5086402;28;20277;-77
2020/12/28 08:46:15;;;;;;;51.08;23.23;;;4.50;99.90;;;;;;5082518;28;20201;-76
2020/12/28 08:48:42;;;;;;;44.75;23.50;;;4.40;99.90;;;;;;5071949;28;20581;-78
2020/12/28 08:51:17;;;;;;;50.58;22.80;;;4.50;99.90;;;;;;5078067;28;20199;-79
2020/12/28 08:53:47;;;;;;;40.80;20.58;;;4.50;99.90;;;;;;5069539;28;20642;-76
2020/12/28 08:56:15;;;;;;;54.78;22.63;;;4.50;99.90;;;;;;5070436;28;20676;-76
2020/12/28 08:58:41;;;;;;;47.28;22.50;;;4.50;99.90;;;;;;5071727;28;20198;-77
2020/12/28 09:01:07;;;;;;;43.60;22.33;;;4.60;99.90;;;;;;5084859;28;20208;-77
2020/12/28 09:03:36;;;;;;;44.33;22.63;;;4.60;99.90;;;;;;5081953;28;20251;-76
2020/12/28 09:06:02;;;;;;;48.05;22.08;;;4.60;99.90;;;;;;5067342;28;20710;-76
2020/12/28 09:08:29;;;;;;;41.53;21.52;;;4.60;99.90;;;;;;5069018;28;20750;-75
2020/12/28 09:10:56;;;;;;;41.55;20.83;;;4.70;99.90;;;;;;5069063;28;20202;-77
2020/12/28 09:13:23;;;;;;;40.85;20.35;;;4.70;99.90;;;;;;5067412;28;20646;-77
2020/12/28 09:15:49;;;;;;;44.08;20.63;;;4.70;99.90;;;;;;5071180;28;20194;-76
2020/12/28 09:18:16;;;;;;;41.47;20.17;;;4.70;99.90;;;;;;5072762;28;20277;-76
2020/12/28 09:20:42;;;;;;;38.97;20.40;;;4.70;99.90;;;;;;5069422;28;20556;-76
2020/12/28 09:23:08;;;;;;;36.58;19.48;;;4.80;99.90;;;;;;5072271;28;20194;-76
2020/12/28 09:25:35;;;;;;;43.03;19.33;;;4.80;99.90;;;;;;5084859;28;20267;-75
2020/12/28 09:28:01;;;;;;;39.20;19.10;;;4.80;99.90;;;;;;5067446;28;20212;-76
2020/12/28 09:30:28;;;;;;;44.67;18.15;;;4.90;99.90;;;;;;5068435;28;20533;-76
2020/12/28 09:32:55;;;;;;;35.38;18.38;;;4.90;99.90;;;;;;5067801;28;20571;-76
2020/12/28 09:35:22;;;;;;;33.33;18.10;;;5.00;99.90;;;;;;5075277;28;20997;-76
2020/12/28 09:37:48;;;;;;;36.55;16.52;;;5.00;99.90;;;;;;5087171;28;20198;-75
2020/12/28 09:40:14;;;;;;;33.60;16.48;;;5.00;99.90;;;;;;5066195;28;20210;-76
2020/12/28 09:42:41;;;;;;;32.53;16.63;;;5.10;99.90;;;;;;5069560;28;20206;-77
2020/12/28 09:47:49;;;;;;;37.10;16.17;;;5.10;99.90;;;;;;5080804;28;20202;-77
2020/12/28 09:50:16;;;;;;;29.20;14.82;;;5.10;99.90;;;;;;5074772;28;20688;-75
2020/12/28 09:52:42;;;;;;;23.88;14.82;;;5.20;99.90;;;;;;5066197;28;20203;-77
2020/12/28 09:55:09;;;;;;;25.58;14.20;;;5.20;99.90;;;;;;5066085;28;20198;-75
2020/12/28 09:57:35;;;;;;;29.55;14.27;;;5.20;99.90;;;;;;5066880;27;20211;-76
2020/12/28 10:00:02;;;;;;;30.40;14.55;;;5.20;99.90;;;;;;5068160;28;20210;-76
2020/12/28 10:02:31;;;;;;;25.02;14.48;;;5.20;99.90;;;;;;5066443;28;20282;-76
2020/12/28 10:04:58;;;;;;;31.85;14.52;;;5.30;99.90;;;;;;5081238;28;20214;-75
2020/12/28 10:07:24;;;;;;;25.80;13.80;;;5.30;99.90;;;;;;5078111;28;20195;-75
2020/12/28 10:09:50;;;;;;;27.27;12.43;;;5.30;99.90;;;;;;5067794;28;20207;-76
2020/12/28 10:12:17;;;;;;;23.42;11.82;;;5.30;99.90;;;;;;5069634;28;20210;-76
2020/12/28 10:14:43;;;;;;;25.85;11.85;;;5.40;99.90;;;;;;5073141;28;20202;-76
2020/12/28 10:17:10;;;;;;;21.85;11.52;;;5.40;99.90;;;;;;5069211;28;20271;-76
2020/12/28 10:19:36;;;;;;;21.67;11.80;;;5.40;99.90;;;;;;5072299;27;20229;-76
2020/12/28 10:22:03;;;;;;;22.42;12.13;;;5.40;99.90;;;;;;5067711;28;20205;-76
2020/12/28 10:24:30;;;;;;;24.02;12.18;;;5.40;99.90;;;;;;5082681;28;20214;-77
2020/12/28 10:26:56;;;;;;;25.50;11.75;;;5.40;99.90;;;;;;5068264;28;20571;-76
2020/12/28 10:29:23;;;;;;;22.75;11.73;;;5.40;99.90;;;;;;5071894;28;20201;-76
2020/12/28 10:31:49;;;;;;;25.17;12.00;;;5.40;99.90;;;;;;5084454;28;20202;-76
2020/12/28 10:34:15;;;;;;;21.77;11.55;;;5.40;99.90;;;;;;5081550;28;20209;-76
2020/12/28 10:36:42;;;;;;;23.63;11.30;;;5.50;99.90;;;;;;5077302;27;20234;-76
2020/12/28 10:39:09;;;;;;;20.92;9.68;;;5.50;99.90;;;;;;5070568;28;20199;-76
2020/12/28 10:41:35;;;;;;;22.45;10.13;;;5.50;99.90;;;;;;5073852;28;20218;-76
2020/12/28 10:44:02;;;;;;;18.63;10.40;;;5.50;99.90;;;;;;5074483;28;20658;-77
2020/12/28 10:46:28;;;;;;;17.27;8.80;;;5.50;99.90;;;;;;5085004;28;20198;-76
2020/12/28 10:48:56;;;;;;;17.30;7.90;;;5.50;99.90;;;;;;5069823;28;20203;-76
2020/12/28 10:51:23;;;;;;;12.15;6.70;;;5.50;99.90;;;;;;5070428;27;20207;-76
2020/12/28 10:53:49;;;;;;;16.40;8.05;;;5.50;99.90;;;;;;5072095;28;20682;-76
2020/12/28 10:56:23;;;;;;;19.52;7.93;;;5.50;99.90;;;;;;5069627;28;20198;-75
2020/12/28 10:58:49;;;;;;;17.15;8.13;;;5.50;99.90;;;;;;5069745;28;20566;-76
2020/12/28 11:01:15;;;;;;;16.55;8.52;;;5.50;99.90;;;;;;5073538;28;20203;-77
2020/12/28 11:03:42;;;;;;;16.85;7.68;;;5.60;99.90;;;;;;5070218;28;20236;-77
2020/12/28 11:06:08;;;;;;;14.40;7.72;;;5.60;99.90;;;;;;5082450;28;20214;-77
2020/12/28 11:08:38;;;;;;;15.77;7.22;;;5.60;99.90;;;;;;5085639;28;20209;-76
2020/12/28 11:11:04;;;;;;;20.48;7.00;;;5.60;99.90;;;;;;5079459;28;20207;-77
2020/12/28 11:13:31;;;;;;;18.73;7.40;;;5.60;99.90;;;;;;5069673;28;20199;-78
2020/12/28 11:15:58;;;;;;;21.52;6.80;;;5.60;99.90;;;;;;5079569;28;20198;-76
2020/12/28 11:18:24;;;;;;;12.95;6.35;;;5.60;99.90;;;;;;5068699;28;20213;-76
2020/12/28 11:20:50;;;;;;;13.00;6.03;;;5.70;99.90;;;;;;5080656;28;20194;-77
2020/12/28 11:23:17;;;;;;;14.63;5.95;;;5.70;99.90;;;;;;5075957;28;20198;-76
2020/12/28 11:25:43;;;;;;;14.10;5.68;;;5.70;99.90;;;;;;5072776;28;20687;-76
2020/12/28 11:28:10;;;;;;;12.45;5.70;;;5.80;99.90;;;;;;5082211;28;20198;-76
2020/12/28 11:30:37;;;;;;;16.77;5.18;;;5.80;99.90;;;;;;5071198;28;20202;-75
2020/12/28 11:33:04;;;;;;;19.65;5.70;;;5.90;99.90;;;;;;5069206;28;20206;-76
2020/12/28 11:35:31;;;;;;;12.82;5.30;;;6.00;99.90;;;;;;5070290;27;20222;-76
2020/12/28 11:37:57;;;;;;;15.90;5.47;;;6.00;99.90;;;;;;5068745;28;20259;-76
2020/12/28 11:40:23;;;;;;;11.82;5.32;;;6.10;99.90;;;;;;5075509;28;20216;-78
2020/12/28 11:42:50;;;;;;;13.82;6.03;;;6.20;99.90;;;;;;5067390;28;20199;-76
2020/12/28 11:45:16;;;;;;;13.90;5.57;;;6.40;99.90;;;;;;5068730;28;20681;-77
2020/12/28 11:47:44;;;;;;;11.00;4.65;;;6.40;99.90;;;;;;5073352;28;20211;-77
2020/12/28 11:50:10;;;;;;;10.05;4.80;;;6.60;99.90;;;;;;5084701;28;20194;-76
2020/12/28 11:52:37;;;;;;;14.57;4.45;;;6.60;99.90;;;;;;5070698;28;20243;-77
2020/12/28 11:55:04;;;;;;;12.88;4.53;;;6.60;99.90;;;;;;5068914;27;20270;-77
2020/12/28 11:57:32;;;;;;;12.27;4.78;;;6.60;99.90;;;;;;5086926;28;20262;-77
2020/12/28 11:59:58;;;;;;;9.40;4.40;;;6.60;99.90;;;;;;5067598;28;20206;-76
2020/12/28 12:02:25;;;;;;;10.82;4.45;;;6.70;99.90;;;;;;5070341;28;20207;-76
2020/12/28 12:04:52;;;;;;;11.30;4.95;;;6.70;99.90;;;;;;5084039;28;20209;-77
2020/12/28 12:07:20;;;;;;;9.25;4.70;;;6.70;99.90;;;;;;5075357;28;20214;-76
2020/12/28 12:09:46;;;;;;;14.70;4.32;;;6.70;99.90;;;;;;5074116;28;20222;-76
2020/12/28 12:12:13;;;;;;;15.27;4.50;;;6.70;99.90;;;;;;5070182;28;20678;-76
2020/12/28 12:14:39;;;;;;;17.17;4.25;;;6.70;99.90;;;;;;5071990;28;20198;-76
2020/12/28 12:17:06;;;;;;;18.65;4.43;;;6.70;99.90;;;;;;5076873;28;20203;-77
2020/12/28 12:19:33;;;;;;;10.73;4.68;;;6.60;99.90;;;;;;5072698;28;20225;-76
2020/12/28 12:22:00;;;;;;;10.20;4.93;;;6.60;99.90;;;;;;5069575;28;20682;-76
2020/12/28 12:24:26;;;;;;;7.63;4.25;;;6.60;99.90;;;;;;5068142;28;20222;-76
2020/12/28 12:26:53;;;;;;;12.43;5.07;;;6.60;99.90;;;;;;5077867;28;20190;-76
2020/12/28 12:29:19;;;;;;;9.45;4.47;;;6.50;99.90;;;;;;5066574;28;20190;-76
2020/12/28 12:31:49;;;;;;;14.77;4.50;;;6.50;99.90;;;;;;5070697;28;20225;-76
2020/12/28 12:34:15;;;;;;;15.85;4.32;;;6.40;99.90;;;;;;5066627;27;20228;-76
2020/12/28 12:36:42;;;;;;;8.80;3.92;;;6.40;99.90;;;;;;5072490;27;20249;-76
2020/12/28 12:39:09;;;;;;;8.52;4.22;;;6.40;99.90;;;;;;5082647;28;20199;-76
2020/12/28 12:41:36;;;;;;;8.52;4.13;;;6.40;99.90;;;;;;5082190;28;20919;-76
2020/12/28 12:44:02;;;;;;;10.95;4.30;;;6.40;99.90;;;;;;5069858;28;20213;-76
2020/12/28 12:46:29;;;;;;;6.97;3.50;;;6.40;99.90;;;;;;5075058;28;20643;-76
2020/12/28 12:48:55;;;;;;;9.90;4.18;;;6.30;99.90;;;;;;5066474;27;20203;-76
2020/12/28 12:51:22;;;;;;;13.75;4.28;;;6.30;99.90;;;;;;5075468;27;20239;-77
2020/12/28 12:53:49;;;;;;;10.45;4.30;;;6.30;99.90;;;;;;5069530;28;20202;-78
2020/12/28 12:56:20;;;;;;;11.00;3.95;;;6.30;99.90;;;;;;5077863;28;20673;-77